Terminal Aerodrome Forecast
Issued by NWS

Current Version | Previous Version | Text Only | Print | Product List | Glossary Off
Versions: 1 2 3 4 5 6 7 8 9 10 11 12 13 14 15 16 17 18 19

000
FTUS41 KPBZ 142000 AAA
TAFMGW
TAF AMD
KMGW 142034Z 1421/1518 22010G20KT P6SM -SHRA BKN045
     FM150300 VRB05KT 3SM -RA OVC012
     FM151100 29012KT 3SM -SHRA OVC010=

USA.gov is the U.S. government's official web portal to all federal, state and local government web resources and services.